Saturday, December 15, 2018, 11:45 PM EST
Back to Local

KORH, Worcester Regional Airport

Location: Worcester, MA, United States Lat: 42.267
Local Time: 11:45 PM EST ( 4:45 GMT) Lon: -71.867
Time Zone: US/Eastern Elev: 1010 ft

Show me the last for .
Show Decoded

2018-12-15 22:54 METAR KORH 160354Z VRB04KT 10SM CLR 02/M03 A3022 RMK AO2 SLP241 T00221028 =
2018-12-15 21:54 METAR KORH 160254Z 03008KT 10SM CLR 03/M03 A3021 RMK AO2 SLP239 T00281028 51020
                 =
2018-12-15 20:54 METAR KORH 160154Z 04008KT 10SM CLR 03/M02 A3021 RMK AO2 SLP237 T00331022 =
2018-12-15 19:54 METAR KORH 160054Z 04006KT 10SM CLR 04/M01 A3020 RMK AO2 SLP235 T00391011 =
2018-12-15 18:54 METAR KORH 152354Z 03012G18KT 10SM CLR 04/M01 A3015 RMK AO2 SLP218 T00441006
                 10100 20044 53004 =
2018-12-15 17:54 METAR KORH 152254Z 04007KT 10SM CLR 06/01 A3014 RMK AO2 SLP212 T00610011 =
2018-12-15 16:54 METAR KORH 152154Z 03006KT 10SM CLR 07/00 A3014 RMK AO2 SLP214 T00720000 =
2018-12-15 15:54 METAR KORH 152054Z 02005KT 10SM CLR 08/M01 A3014 RMK AO2 SLP212 T00831006 53006
                 =
2018-12-15 14:54 METAR KORH 151954Z 36005KT 10SM CLR 09/01 A3013 RMK AO2 SLP209 T00940006 =
2018-12-15 13:54 METAR KORH 151854Z 35006KT 10SM CLR 10/03 A3012 RMK AO2 SLP206 T01000028 =
2018-12-15 12:54 METAR KORH 151754Z 34005KT 10SM CLR 09/02 A3012 RMK AO2 SLP206 T00940022 10100
                 20061 56021 =
2018-12-15 11:54 METAR KORH 151654Z 32007KT 10SM CLR 09/05 A3012 RMK AO2 SLP206 T00940050 =
2018-12-15 10:54 METAR KORH 151554Z 30006KT 10SM CLR 08/06 A3016 RMK AO2 SLP221 T00830056 =
2018-12-15 09:54 METAR KORH 151454Z 23005KT 10SM SCT045 OVC055 07/06 A3019 RMK AO2 SLP229
                 T00720061 51012 =
2018-12-15 09:29 METAR KORH 151429Z 25005KT 10SM FEW004 OVC049 07/07 A3019 RMK AO2 T00720067 =
2018-12-15 08:54 METAR KORH 151354Z 27004KT 10SM BKN004 OVC043 07/06 A3017 RMK AO2 SLP226
                 T00670061 =
2018-12-15 07:54 METAR KORH 151254Z 23006KT 10SM OVC004 06/06 A3017 RMK AO2 SLP224 T00610061 =
2018-12-15 07:33 METAR KORH 151233Z 24004KT 10SM OVC004 07/06 A3016 RMK AO2 T00670061 =
2018-12-15 07:01 METAR KORH 151201Z 24008KT 10SM BKN006 OVC024 07/06 A3015 RMK AO2 T00670061 =
2018-12-15 06:54 METAR KORH 151154Z 24009KT 10SM SCT006 OVC025 07/06 A3015 RMK AO2 SLP217
                 T00670061 10072 20067 53007 =
2018-12-15 05:54 METAR KORH 151054Z 24012KT 10SM SCT005 BKN021 OVC027 07/06 A3013 RMK AO2 SLP213
                 T00670061 =
2018-12-15 05:22 METAR KORH 151022Z AUTO 25011KT 10SM BKN006 BKN022 OVC029 07/06 A3012 RMK AO2
                 T00670061 =
2018-12-15 05:06 METAR KORH 151006Z AUTO 24011KT 10SM SCT007 BKN023 OVC029 07/06 A3013 RMK AO2
                 T00670061 =
2018-12-15 04:54 METAR KORH 150954Z AUTO 25013KT 10SM SCT024 BKN029 OVC041 07/06 A3013 RMK AO2
                 SLP210 T00670056 =
2018-12-15 03:54 METAR KORH 150854Z AUTO 24013G21KT 10SM OVC028 07/05 A3014 RMK AO2 SLP214
                 T00720050 56009 =
2018-12-15 03:45 METAR KORH 150845Z AUTO 25017G24KT 10SM OVC028 07/05 A3014 RMK AO2 T00720050 =
2018-12-15 02:54 METAR KORH 150754Z AUTO 25015KT 10SM OVC035 07/05 A3015 RMK AO2 SLP217 T00720050
                 =
2018-12-15 01:54 METAR KORH 150654Z AUTO 23017G25KT 10SM BKN039 BKN046 07/05 A3015 RMK AO2 PK WND
                 24026/0641 SLP217 T00670050 =
2018-12-15 01:11 METAR KORH 150611Z AUTO 23016KT 10SM SCT007 OVC044 07/06 A3016 RMK AO2 T00670056
                 =
2018-12-15 00:54 METAR KORH 150554Z 24015G20KT 10SM OVC005 07/06 A3017 RMK AO2 CIG 003V010 SLP224
                 T00670061 10067 20039 56007 =
2018-12-14 23:54 METAR KORH 150454Z 23013KT 4SM BR OVC002 06/06 A3019 RMK AO2 SLP232 T00610056
                 400611039 =
2018-12-14 23:50 METAR KORH 150450Z 23012G19KT 3SM BR OVC002 06/06 A3019 RMK AO2 =

Support USWX by starting your Amazon purchase here.